createdAt,value
2019-05-29T00:00:10.114Z,9.97
2019-05-29T00:01:15.895Z,9.99
2019-05-29T00:02:10.586Z,10.00
2019-05-29T00:03:12.460Z,9.91
2019-05-29T00:04:10.236Z,9.92
2019-05-29T00:05:10.185Z,9.94
2019-05-29T00:06:10.239Z,9.92
2019-05-29T00:07:10.112Z,9.94
2019-05-29T00:08:10.372Z,9.92
2019-05-29T00:09:14.298Z,9.91
2019-05-29T00:10:10.495Z,9.99
2019-05-29T00:11:10.153Z,9.84
2019-05-29T00:12:15.107Z,10.02
2019-05-29T00:13:12.336Z,9.91
2019-05-29T00:14:20.713Z,9.94
2019-05-29T00:15:10.458Z,9.99
2019-05-29T00:16:12.373Z,9.95
2019-05-29T00:17:10.509Z,9.99
2019-05-29T00:18:10.439Z,9.94
2019-05-29T00:19:12.628Z,9.91
2019-05-29T00:20:10.738Z,9.90
2019-05-29T00:21:14.614Z,9.90
2019-05-29T00:22:10.249Z,9.92
2019-05-29T00:23:24.737Z,10.00
2019-05-29T00:24:10.735Z,9.94
2019-05-29T00:25:23.635Z,9.97
2019-05-29T00:26:35.986Z,9.92
2019-05-29T00:27:12.576Z,10.00
2019-05-29T00:28:10.829Z,9.91
2019-05-29T00:29:10.238Z,9.91
2019-05-29T00:30:09.306Z,9.91
2019-05-29T00:31:09.958Z,9.85
2019-05-29T00:32:09.312Z,9.92
2019-05-29T00:33:10.309Z,9.92
2019-05-29T00:34:11.029Z,9.92
2019-05-29T00:35:10.205Z,9.92
2019-05-29T00:36:10.371Z,9.99
2019-05-29T00:37:10.743Z,9.94
2019-05-29T00:38:10.742Z,9.94
2019-05-29T00:39:10.630Z,9.92
2019-05-29T00:40:11.303Z,9.94
2019-05-29T00:41:11.243Z,9.94
2019-05-29T00:42:11.093Z,9.91
2019-05-29T00:43:11.129Z,9.94
2019-05-29T00:44:11.142Z,9.94
2019-05-29T00:45:09.504Z,9.97
2019-05-29T00:46:09.323Z,9.91
2019-05-29T00:47:09.544Z,9.88
2019-05-29T00:48:09.743Z,9.97
2019-05-29T00:49:09.708Z,10.07
2019-05-29T00:50:09.928Z,9.91
2019-05-29T00:51:09.037Z,9.91
2019-05-29T00:52:12.220Z,9.88
2019-05-29T00:53:10.241Z,9.91
2019-05-29T00:54:10.304Z,9.92
2019-05-29T00:55:09.016Z,9.95
2019-05-29T00:56:08.969Z,9.92
2019-05-29T00:57:10.896Z,9.92
2019-05-29T00:58:08.957Z,9.91
2019-05-29T00:59:09.006Z,9.90
2019-05-29T01:00:11.145Z,9.92
2019-05-29T01:01:11.423Z,9.90
2019-05-29T01:02:09.591Z,9.90
2019-05-29T01:03:11.627Z,9.99
2019-05-29T01:04:09.578Z,9.87
2019-05-29T01:05:10.070Z,9.90
2019-05-29T01:06:09.866Z,9.77
2019-05-29T01:07:10.102Z,9.95
2019-05-29T01:08:10.246Z,9.87
2019-05-29T01:09:08.847Z,9.77
2019-05-29T01:10:08.827Z,9.77
2019-05-29T01:11:08.841Z,9.84
2019-05-29T01:12:08.789Z,9.80
2019-05-29T01:13:08.816Z,9.87
2019-05-29T01:14:19.260Z,9.76
2019-05-29T01:15:08.879Z,9.80
2019-05-29T01:16:08.833Z,9.80
2019-05-29T01:17:08.777Z,9.80
2019-05-29T01:18:09.589Z,9.74
2019-05-29T01:19:08.945Z,9.66
2019-05-29T01:20:09.267Z,9.67
2019-05-29T01:21:08.707Z,9.69
2019-05-29T01:22:08.688Z,9.73
2019-05-29T01:23:08.842Z,9.56
2019-05-29T01:24:09.270Z,9.59
2019-05-29T01:25:08.668Z,9.56
2019-05-29T01:26:08.631Z,9.62
2019-05-29T01:27:09.335Z,9.52
2019-05-29T01:28:08.589Z,9.66
2019-05-29T01:29:08.626Z,9.64
2019-05-29T01:30:08.608Z,9.54
2019-05-29T01:31:08.577Z,9.66
2019-05-29T01:32:08.647Z,9.64
2019-05-29T01:33:08.579Z,9.59
2019-05-29T01:34:08.609Z,9.48
2019-05-29T01:35:08.514Z,9.55
2019-05-29T01:36:09.508Z,9.58
2019-05-29T01:37:08.572Z,9.52
2019-05-29T01:38:08.612Z,9.54
2019-05-29T01:39:09.276Z,9.56
2019-05-29T01:40:19.242Z,9.54
2019-05-29T01:41:09.493Z,9.45
2019-05-29T01:42:08.458Z,9.49
2019-05-29T01:43:08.477Z,9.47
2019-05-29T01:44:08.906Z,9.45
2019-05-29T01:45:09.387Z,9.44
2019-05-29T01:46:08.474Z,9.51
2019-05-29T01:47:09.462Z,9.44
2019-05-29T01:48:09.353Z,9.36
2019-05-29T01:49:08.375Z,9.39
2019-05-29T01:50:10.286Z,9.42
2019-05-29T01:51:08.367Z,9.39
2019-05-29T01:52:08.365Z,9.39
2019-05-29T01:53:08.419Z,9.40
2019-05-29T01:54:08.356Z,9.42
2019-05-29T01:55:08.524Z,9.49
2019-05-29T01:56:08.319Z,9.52
2019-05-29T01:57:08.375Z,9.49
2019-05-29T01:58:09.776Z,9.48
2019-05-29T01:59:08.290Z,9.42
2019-05-29T02:00:08.259Z,9.44
2019-05-29T02:01:08.302Z,9.42
2019-05-29T02:02:08.231Z,9.44
2019-05-29T02:03:09.007Z,9.44
2019-05-29T02:04:08.290Z,9.45
2019-05-29T02:05:08.282Z,9.49
2019-05-29T02:06:08.889Z,9.42
2019-05-29T02:07:08.905Z,9.49
2019-05-29T02:08:08.248Z,9.51
2019-05-29T02:09:08.237Z,9.42
2019-05-29T02:10:08.197Z,9.52
2019-05-29T02:12:29.579Z,9.56
2019-05-29T02:14:49.487Z,9.58
2019-05-29T02:17:00.009Z,9.66
2019-05-29T02:17:58.147Z,9.55
2019-05-29T02:20:16.890Z,9.59
2019-05-29T02:21:15.943Z,9.63
2019-05-29T02:23:34.016Z,9.63
2019-05-29T02:27:07.767Z,9.55
2019-05-29T02:27:56.879Z,9.64
2019-05-29T02:28:56.827Z,9.66
2019-05-29T02:36:48.651Z,9.67
2019-05-29T02:37:46.400Z,9.56
2019-05-29T02:38:29.104Z,9.56
2019-05-29T02:39:22.556Z,9.63
2019-05-29T02:40:23.158Z,9.70
2019-05-29T02:44:55.936Z,9.73
2019-05-29T02:45:54.807Z,9.73
2019-05-29T02:46:51.254Z,9.67
2019-05-29T02:47:51.136Z,9.74
2019-05-29T02:52:35.755Z,9.72
2019-05-29T02:53:48.454Z,9.56
2019-05-29T02:54:27.210Z,9.55
2019-05-29T02:55:26.907Z,9.56
2019-05-29T02:58:21.641Z,9.55
2019-05-29T02:59:21.037Z,9.59
2019-05-29T03:02:36.649Z,9.69
2019-05-29T03:03:58.905Z,9.64
2019-05-29T03:04:33.043Z,9.62
2019-05-29T03:05:35.813Z,9.64
2019-05-29T03:06:36.745Z,9.64
2019-05-29T03:07:33.081Z,9.66
2019-05-29T03:08:34.158Z,9.67
2019-05-29T03:09:32.732Z,9.72
2019-05-29T03:10:33.131Z,9.76
2019-05-29T03:11:33.423Z,9.63
2019-05-29T03:12:36.756Z,9.62
2019-05-29T03:13:42.140Z,9.58
2019-05-29T03:14:34.364Z,9.67
2019-05-29T03:15:33.618Z,9.62
2019-05-29T03:16:34.956Z,9.62
2019-05-29T03:17:33.678Z,9.73
2019-05-29T03:18:33.002Z,9.73
2019-05-29T03:19:32.546Z,9.72
2019-05-29T03:20:32.445Z,9.67
2019-05-29T03:21:32.555Z,9.76
2019-05-29T03:22:33.725Z,9.73
2019-05-29T03:23:35.371Z,9.70
2019-05-29T03:24:32.930Z,9.74
2019-05-29T03:25:32.615Z,9.70
2019-05-29T03:26:33.425Z,9.76
2019-05-29T03:27:33.848Z,9.72
2019-05-29T03:28:34.612Z,9.69
2019-05-29T03:29:32.120Z,9.72
2019-05-29T03:30:41.392Z,9.80
2019-05-29T03:31:39.731Z,9.77
2019-05-29T03:32:42.525Z,9.80
2019-05-29T03:33:43.612Z,9.85
2019-05-29T03:34:39.471Z,9.92
2019-05-29T03:35:39.853Z,9.81
2019-05-29T03:36:41.531Z,9.88
2019-05-29T03:37:34.409Z,9.84
2019-05-29T03:38:32.690Z,9.82
2019-05-29T03:39:32.359Z,9.88
2019-05-29T03:40:34.585Z,9.92
2019-05-29T03:41:32.718Z,9.84
2019-05-29T03:42:32.494Z,9.91
2019-05-29T03:43:35.008Z,9.94
2019-05-29T03:44:33.278Z,9.91
2019-05-29T03:45:33.993Z,9.91
2019-05-29T03:46:41.120Z,9.88
2019-05-29T03:47:33.590Z,9.92
2019-05-29T03:48:32.358Z,10.02
2019-05-29T03:49:33.191Z,9.90
2019-05-29T03:50:33.352Z,9.92
2019-05-29T03:51:34.036Z,9.92
2019-05-29T03:52:32.642Z,9.94
2019-05-29T03:53:33.573Z,9.91
2019-05-29T03:54:33.777Z,9.92
2019-05-29T03:55:33.534Z,9.97
2019-05-29T03:56:32.568Z,9.92
2019-05-29T03:57:31.846Z,9.92
2019-05-29T03:58:33.058Z,9.95
2019-05-29T03:59:32.660Z,9.92
2019-05-29T04:00:41.334Z,9.99
2019-05-29T04:01:33.229Z,10.03
2019-05-29T04:02:33.155Z,10.05
2019-05-29T04:03:33.269Z,10.00
2019-05-29T04:04:33.298Z,10.06
2019-05-29T04:05:33.286Z,9.95
2019-05-29T04:06:33.262Z,10.07
2019-05-29T04:07:33.541Z,9.97
2019-05-29T04:08:33.469Z,10.02
2019-05-29T04:09:33.180Z,10.05
2019-05-29T04:10:34.172Z,10.05
2019-05-29T04:11:33.197Z,10.06
2019-05-29T04:12:33.450Z,9.95
2019-05-29T04:13:32.287Z,9.97
2019-05-29T04:14:31.695Z,10.06
2019-05-29T04:15:31.716Z,10.00
2019-05-29T04:16:52.766Z,10.06
2019-05-29T04:17:33.738Z,10.10
2019-05-29T04:18:31.631Z,10.13
2019-05-29T04:19:34.397Z,10.18
2019-05-29T04:20:31.753Z,10.24
2019-05-29T04:21:32.140Z,10.30
2019-05-29T04:22:32.878Z,10.27
2019-05-29T04:23:32.174Z,10.34
2019-05-29T04:24:33.789Z,10.46
2019-05-29T04:25:35.163Z,10.36
2019-05-29T04:26:33.945Z,10.25
2019-05-29T04:27:31.992Z,10.28
2019-05-29T04:28:32.383Z,10.27
2019-05-29T04:29:34.198Z,10.30
2019-05-29T04:30:34.173Z,10.36
2019-05-29T04:31:32.501Z,10.36
2019-05-29T04:32:32.257Z,10.42
2019-05-29T04:33:32.616Z,10.48
2019-05-29T04:34:32.245Z,10.51
2019-05-29T04:35:32.691Z,10.43
2019-05-29T04:36:36.680Z,10.41
2019-05-29T04:37:32.569Z,10.46
2019-05-29T04:38:33.832Z,10.46
2019-05-29T04:39:32.713Z,10.36
2019-05-29T04:40:32.746Z,10.39
2019-05-29T04:41:32.689Z,10.48
2019-05-29T04:42:33.479Z,10.45
2019-05-29T04:43:32.872Z,10.57
2019-05-29T04:44:33.106Z,10.43
2019-05-29T04:45:33.071Z,10.38
2019-05-29T04:46:33.915Z,10.39
2019-05-29T04:47:33.131Z,10.51
2019-05-29T04:48:32.043Z,10.57
2019-05-29T04:49:31.968Z,10.57
2019-05-29T04:50:33.436Z,10.51
2019-05-29T04:51:33.079Z,10.57
2019-05-29T04:52:33.702Z,10.62
2019-05-29T04:53:33.351Z,10.61
2019-05-29T04:54:31.219Z,10.65
2019-05-29T04:55:32.734Z,10.64
2019-05-29T04:56:31.128Z,10.72
2019-05-29T04:57:31.133Z,10.76
2019-05-29T04:58:31.114Z,10.82
2019-05-29T04:59:31.143Z,10.75
2019-05-29T05:00:31.084Z,10.86
2019-05-29T05:01:31.241Z,10.83
2019-05-29T05:02:31.160Z,10.82
2019-05-29T05:03:31.109Z,10.75
2019-05-29T05:04:31.620Z,10.77
2019-05-29T05:05:33.248Z,10.90
2019-05-29T05:06:31.241Z,10.84
2019-05-29T05:07:31.187Z,10.92
2019-05-29T05:08:31.277Z,10.94
2019-05-29T05:09:31.267Z,10.86
2019-05-29T05:10:31.314Z,10.86
2019-05-29T05:11:31.330Z,10.92
2019-05-29T05:12:31.516Z,10.95
2019-05-29T05:13:31.467Z,10.95
2019-05-29T05:14:31.510Z,11.08
2019-05-29T05:15:31.657Z,11.02
2019-05-29T05:16:31.694Z,10.98
2019-05-29T05:17:31.808Z,11.02
2019-05-29T05:18:31.773Z,10.89
2019-05-29T05:19:31.776Z,10.95
2019-05-29T05:20:31.954Z,10.89
2019-05-29T05:21:31.955Z,10.92
2019-05-29T05:22:31.965Z,11.10
2019-05-29T05:23:31.888Z,11.13
2019-05-29T05:24:32.062Z,11.05
2019-05-29T05:25:32.077Z,11.25
2019-05-29T05:26:32.058Z,11.26
2019-05-29T05:27:32.651Z,11.38
2019-05-29T05:28:45.302Z,11.45
2019-05-29T05:29:30.776Z,11.60
2019-05-29T05:30:30.926Z,11.71
2019-05-29T05:31:32.341Z,11.76
2019-05-29T05:32:31.012Z,11.80
2019-05-29T05:33:31.040Z,11.86
2019-05-29T05:34:30.755Z,11.85
2019-05-29T05:35:31.067Z,11.93
2019-05-29T05:36:30.902Z,11.89
2019-05-29T05:37:30.735Z,11.99
2019-05-29T05:38:30.723Z,12.05
2019-05-29T05:39:32.734Z,11.83
2019-05-29T05:40:30.818Z,11.89
2019-05-29T05:41:30.843Z,11.85
2019-05-29T05:42:31.073Z,11.89
2019-05-29T05:43:32.780Z,11.97
2019-05-29T05:44:30.804Z,12.03
2019-05-29T05:45:30.948Z,12.08
2019-05-29T05:46:30.951Z,12.08
2019-05-29T05:47:44.998Z,12.05
2019-05-29T05:48:31.581Z,12.08
2019-05-29T05:49:31.261Z,12.33
2019-05-29T05:50:31.065Z,12.43
2019-05-29T05:51:31.235Z,12.57
2019-05-29T05:52:31.226Z,12.43
2019-05-29T05:53:31.337Z,12.43
2019-05-29T05:54:31.353Z,12.43
2019-05-29T05:55:31.494Z,12.28
2019-05-29T05:56:31.424Z,12.36
2019-05-29T05:57:31.504Z,12.36
2019-05-29T05:58:31.654Z,12.40
2019-05-29T05:59:31.543Z,12.36
2019-05-29T06:00:31.760Z,12.36
2019-05-29T06:01:31.678Z,12.33
2019-05-29T06:02:31.649Z,12.30
2019-05-29T06:03:31.717Z,12.12
2019-05-29T06:04:31.728Z,11.99
2019-05-29T06:05:30.432Z,12.03
2019-05-29T06:06:30.396Z,11.97
2019-05-29T06:07:30.389Z,12.07
2019-05-29T06:08:30.543Z,12.00
2019-05-29T06:09:30.417Z,12.00
2019-05-29T06:10:30.347Z,11.95
2019-05-29T06:11:30.338Z,11.76
2019-05-29T06:12:30.324Z,11.59
2019-05-29T06:13:30.354Z,11.62
2019-05-29T06:14:30.301Z,11.48
2019-05-29T06:15:30.315Z,11.56
2019-05-29T06:16:30.301Z,11.56
2019-05-29T06:17:30.274Z,11.71
2019-05-29T06:18:30.236Z,11.85
2019-05-29T06:19:30.238Z,12.03
2019-05-29T06:20:30.267Z,12.11
2019-05-29T06:21:30.375Z,12.14
2019-05-29T06:22:30.217Z,12.35
2019-05-29T06:23:30.234Z,12.44
2019-05-29T06:24:30.206Z,12.58
2019-05-29T06:25:31.153Z,12.68
2019-05-29T06:26:30.193Z,12.51
2019-05-29T06:27:30.221Z,12.48
2019-05-29T06:28:30.329Z,12.39
2019-05-29T06:29:30.728Z,12.57
2019-05-29T06:30:30.150Z,12.72
2019-05-29T06:31:30.124Z,12.73
2019-05-29T06:32:30.731Z,12.83
2019-05-29T06:33:30.200Z,12.78
2019-05-29T06:34:30.139Z,12.90
2019-05-29T06:35:30.095Z,12.83
2019-05-29T06:36:30.136Z,12.90
2019-05-29T06:37:30.145Z,13.05
2019-05-29T06:38:30.730Z,13.03
2019-05-29T06:39:30.117Z,13.27
2019-05-29T06:40:30.303Z,13.39
2019-05-29T06:41:30.040Z,13.64
2019-05-29T06:42:30.055Z,13.47
2019-05-29T06:43:30.024Z,13.46
2019-05-29T06:44:30.023Z,13.50
2019-05-29T06:45:30.002Z,13.46
2019-05-29T06:46:30.154Z,13.54
2019-05-29T06:47:29.970Z,13.68
2019-05-29T06:48:42.440Z,13.80
2019-05-29T06:49:30.947Z,13.80
2019-05-29T06:50:29.964Z,13.93
2019-05-29T06:51:30.057Z,13.91
2019-05-29T06:52:30.063Z,13.70
2019-05-29T06:53:29.925Z,13.76
2019-05-29T06:54:29.882Z,13.95
2019-05-29T06:55:29.979Z,13.73
2019-05-29T06:56:30.025Z,13.67
2019-05-29T06:57:29.910Z,13.52
2019-05-29T06:58:29.826Z,13.65
2019-05-29T06:59:29.925Z,13.75
2019-05-29T07:00:35.430Z,13.83
2019-05-29T07:01:30.830Z,13.82
2019-05-29T07:02:31.867Z,13.70
2019-05-29T07:03:29.815Z,13.62
2019-05-29T07:04:29.876Z,13.75
2019-05-29T07:05:29.744Z,13.70
2019-05-29T07:06:29.814Z,13.83
2019-05-29T07:07:29.868Z,13.68
2019-05-29T07:08:38.643Z,13.70
2019-05-29T07:09:31.659Z,13.94
2019-05-29T07:10:30.031Z,14.04
2019-05-29T07:11:29.687Z,14.12
2019-05-29T07:12:29.743Z,13.87
2019-05-29T07:13:29.715Z,13.80
2019-05-29T07:14:29.676Z,13.95
2019-05-29T07:15:29.677Z,14.13
2019-05-29T07:16:43.673Z,14.30
2019-05-29T07:17:30.636Z,14.33
2019-05-29T07:18:29.666Z,14.38
2019-05-29T07:19:45.382Z,14.33
2019-05-29T07:20:30.674Z,14.26
2019-05-29T07:21:29.790Z,14.38
2019-05-29T07:22:29.654Z,14.53
2019-05-29T07:23:29.636Z,14.59
2019-05-29T07:24:29.571Z,14.41
2019-05-29T07:25:29.607Z,14.30
2019-05-29T07:26:29.548Z,14.28
2019-05-29T07:27:30.182Z,14.11
2019-05-29T07:28:29.507Z,13.94
2019-05-29T07:29:29.494Z,13.82
2019-05-29T07:30:29.683Z,13.64
2019-05-29T07:31:29.494Z,14.07
2019-05-29T07:32:29.462Z,13.79
2019-05-29T07:33:29.462Z,13.65
2019-05-29T07:34:29.608Z,13.46
2019-05-29T07:35:29.486Z,13.57
2019-05-29T07:36:30.175Z,13.91
2019-05-29T07:37:29.531Z,14.36
2019-05-29T07:38:29.399Z,14.59
2019-05-29T07:39:30.219Z,14.56
2019-05-29T07:40:30.181Z,14.48
2019-05-29T07:41:29.401Z,14.53
2019-05-29T07:42:32.276Z,14.85
2019-05-29T07:43:30.164Z,15.05
2019-05-29T07:44:29.337Z,15.39
2019-05-29T07:45:29.407Z,15.51
2019-05-29T07:46:29.346Z,15.83
2019-05-29T07:47:29.287Z,15.67
2019-05-29T07:48:29.304Z,15.62
2019-05-29T07:49:38.478Z,15.91
2019-05-29T07:50:31.166Z,16.09
2019-05-29T07:51:29.282Z,16.03
2019-05-29T07:52:29.283Z,15.59
2019-05-29T07:53:29.266Z,15.30
2019-05-29T07:54:29.341Z,14.78
2019-05-29T07:55:30.171Z,14.71
2019-05-29T07:56:29.238Z,14.67
2019-05-29T07:57:29.293Z,14.34
2019-05-29T07:58:29.188Z,14.20
2019-05-29T07:59:29.186Z,14.33
2019-05-29T08:00:35.895Z,14.31
2019-05-29T08:01:30.638Z,14.23
2019-05-29T08:02:29.236Z,14.22
2019-05-29T08:03:29.169Z,14.20
2019-05-29T08:04:29.120Z,14.07
2019-05-29T08:05:29.306Z,14.19
2019-05-29T08:06:29.094Z,14.59
2019-05-29T08:07:29.184Z,14.93
2019-05-29T08:08:29.147Z,15.11
2019-05-29T08:09:29.178Z,15.23
2019-05-29T08:10:29.171Z,15.26
2019-05-29T08:11:29.069Z,15.36
2019-05-29T08:12:29.062Z,15.52
2019-05-29T08:13:30.191Z,15.45
2019-05-29T08:14:29.224Z,15.27
2019-05-29T08:15:30.202Z,15.30
2019-05-29T08:16:29.006Z,15.22
2019-05-29T08:17:29.003Z,14.96
2019-05-29T08:18:28.985Z,14.81
2019-05-29T08:19:28.999Z,14.81
2019-05-29T08:20:29.677Z,15.02
2019-05-29T08:21:29.215Z,15.39
2019-05-29T08:22:34.341Z,15.62
2019-05-29T08:23:29.931Z,15.91
2019-05-29T08:24:28.998Z,15.84
2019-05-29T08:25:28.948Z,15.83
2019-05-29T08:26:28.923Z,15.85
2019-05-29T08:27:29.676Z,15.98
2019-05-29T08:28:36.856Z,15.98
2019-05-29T08:29:32.676Z,15.94
2019-05-29T08:30:29.961Z,16.02
2019-05-29T08:31:28.849Z,15.98
2019-05-29T08:32:35.962Z,15.63
2019-05-29T08:33:28.854Z,15.52
2019-05-29T08:34:28.817Z,15.35
2019-05-29T08:35:32.859Z,15.26
2019-05-29T08:36:29.055Z,14.93
2019-05-29T08:37:30.198Z,14.74
2019-05-29T08:38:28.750Z,15.04
2019-05-29T08:39:36.106Z,15.32
2019-05-29T08:40:29.903Z,15.44
2019-05-29T08:41:28.729Z,15.73
2019-05-29T08:42:28.798Z,15.87
2019-05-29T08:43:28.866Z,15.96
2019-05-29T08:44:28.686Z,16.05
2019-05-29T08:45:28.688Z,15.90
2019-05-29T08:46:28.831Z,15.52
2019-05-29T08:47:28.707Z,15.33
2019-05-29T08:48:28.693Z,15.37
2019-05-29T08:49:28.670Z,15.35
2019-05-29T08:50:28.783Z,15.60
2019-05-29T08:51:28.645Z,15.55
2019-05-29T08:52:28.617Z,15.36
2019-05-29T08:53:28.731Z,15.15
2019-05-29T08:54:28.623Z,15.07
2019-05-29T08:55:28.613Z,15.02
2019-05-29T08:56:28.835Z,15.18
2019-05-29T08:57:28.612Z,15.51
2019-05-29T08:58:28.646Z,15.94
2019-05-29T08:59:28.624Z,16.21
2019-05-29T09:00:28.552Z,16.64
2019-05-29T09:01:28.559Z,16.84
2019-05-29T09:02:28.616Z,17.17
2019-05-29T09:03:28.757Z,17.16
2019-05-29T09:04:28.523Z,17.39
2019-05-29T09:05:28.608Z,17.69
2019-05-29T09:06:28.600Z,17.38
2019-05-29T09:07:28.817Z,17.14
2019-05-29T09:08:28.441Z,16.79
2019-05-29T09:09:28.485Z,16.43
2019-05-29T09:10:28.419Z,16.16
2019-05-29T09:11:28.461Z,15.92
2019-05-29T09:12:29.919Z,15.85
2019-05-29T09:13:28.475Z,15.99
2019-05-29T09:14:28.377Z,15.60
2019-05-29T09:15:28.381Z,15.51
2019-05-29T09:16:28.466Z,15.84
2019-05-29T09:17:28.334Z,16.03
2019-05-29T09:18:28.373Z,16.02
2019-05-29T09:19:28.388Z,16.03
2019-05-29T09:20:49.790Z,16.06
2019-05-29T09:21:29.396Z,16.39
2019-05-29T09:22:28.362Z,16.80
2019-05-29T09:23:28.303Z,17.01
2019-05-29T09:24:28.378Z,16.91
2019-05-29T09:25:28.354Z,16.79
2019-05-29T09:26:28.375Z,16.77
2019-05-29T09:27:28.403Z,17.10
2019-05-29T09:28:28.258Z,17.02
2019-05-29T09:29:28.279Z,16.92
2019-05-29T09:30:28.209Z,16.68
2019-05-29T09:31:28.191Z,16.65
2019-05-29T09:32:48.285Z,16.28
2019-05-29T09:33:29.178Z,16.02
2019-05-29T09:34:28.229Z,15.80
2019-05-29T09:35:28.161Z,15.87
2019-05-29T09:36:28.193Z,15.81
2019-05-29T09:37:28.144Z,15.57
2019-05-29T09:38:28.135Z,15.52
2019-05-29T09:39:28.144Z,15.57
2019-05-29T09:40:28.097Z,15.78
2019-05-29T09:41:28.105Z,16.16
2019-05-29T09:42:28.069Z,16.49
2019-05-29T09:43:30.623Z,16.73
2019-05-29T09:44:38.467Z,16.92
2019-05-29T09:45:29.049Z,17.16
2019-05-29T09:46:28.056Z,17.17
2019-05-29T09:47:28.055Z,16.97
2019-05-29T09:48:28.859Z,16.68
2019-05-29T09:49:28.059Z,16.66
2019-05-29T09:50:46.225Z,16.51
2019-05-29T09:51:28.985Z,16.51
2019-05-29T09:52:30.565Z,16.44
2019-05-29T09:53:28.027Z,16.03
2019-05-29T09:54:28.148Z,15.94
2019-05-29T09:55:27.962Z,15.81
2019-05-29T09:56:27.983Z,15.73
2019-05-29T09:57:27.948Z,15.65
2019-05-29T09:58:27.927Z,15.52
2019-05-29T09:59:27.939Z,15.62
2019-05-29T10:00:27.914Z,15.72
2019-05-29T10:01:27.993Z,15.99
2019-05-29T10:02:27.903Z,16.13
2019-05-29T10:03:27.873Z,16.16
2019-05-29T10:04:27.909Z,16.28
2019-05-29T10:05:27.889Z,16.46
2019-05-29T10:06:27.865Z,16.65
2019-05-29T10:07:27.807Z,16.82
2019-05-29T10:08:27.819Z,16.89
2019-05-29T10:09:27.832Z,16.55
2019-05-29T10:10:27.799Z,16.43
2019-05-29T10:11:27.830Z,16.31
2019-05-29T10:12:27.799Z,16.49
2019-05-29T10:13:27.735Z,16.41
2019-05-29T10:14:27.839Z,16.26
2019-05-29T10:15:27.854Z,16.39
2019-05-29T10:16:27.740Z,16.44
2019-05-29T10:17:27.714Z,16.51
2019-05-29T10:18:32.286Z,16.54
2019-05-29T10:19:28.779Z,16.68
2019-05-29T10:20:37.811Z,16.58
2019-05-29T10:21:39.468Z,16.55
2019-05-29T10:22:28.653Z,16.59
2019-05-29T10:23:27.626Z,16.64
2019-05-29T10:24:27.672Z,16.83
2019-05-29T10:25:27.640Z,17.05
2019-05-29T10:26:27.635Z,17.02
2019-05-29T10:27:27.628Z,16.72
2019-05-29T10:28:27.632Z,16.43
2019-05-29T10:29:27.574Z,16.02
2019-05-29T10:30:27.660Z,16.00
2019-05-29T10:31:27.579Z,16.06
2019-05-29T10:32:27.598Z,16.13
2019-05-29T10:33:27.548Z,16.31
2019-05-29T10:34:27.561Z,16.46
2019-05-29T10:35:27.517Z,16.57
2019-05-29T10:36:27.558Z,16.66
2019-05-29T10:37:27.547Z,16.69
2019-05-29T10:38:27.488Z,16.84
2019-05-29T10:39:27.496Z,16.83
2019-05-29T10:40:27.476Z,17.13
2019-05-29T10:41:27.458Z,17.22
2019-05-29T10:42:27.519Z,17.44
2019-05-29T10:43:34.229Z,17.53
2019-05-29T10:44:28.427Z,17.73
2019-05-29T10:45:27.458Z,17.98
2019-05-29T10:46:27.430Z,17.94
2019-05-29T10:47:27.406Z,18.06
2019-05-29T10:48:27.416Z,18.27
2019-05-29T10:49:27.417Z,18.51
2019-05-29T10:50:27.409Z,18.46
2019-05-29T10:51:27.368Z,18.76
2019-05-29T10:52:27.448Z,18.63
2019-05-29T10:53:27.341Z,18.41
2019-05-29T10:54:27.357Z,17.93
2019-05-29T10:55:27.385Z,17.41
2019-05-29T10:56:27.308Z,17.23
2019-05-29T10:57:27.415Z,17.41
2019-05-29T10:58:27.301Z,17.57
2019-05-29T10:59:27.329Z,17.69
2019-05-29T11:00:27.315Z,17.94
2019-05-29T11:01:27.263Z,18.00
2019-05-29T11:02:27.267Z,17.95
2019-05-29T11:03:27.231Z,18.05
2019-05-29T11:04:27.242Z,18.19
2019-05-29T11:05:27.276Z,18.06
2019-05-29T11:06:27.310Z,18.18
2019-05-29T11:07:27.220Z,18.34
2019-05-29T11:08:27.196Z,18.43
2019-05-29T11:09:41.010Z,17.97
2019-05-29T11:10:28.167Z,17.79
2019-05-29T11:11:27.132Z,17.42
2019-05-29T11:12:27.147Z,17.24
2019-05-29T11:13:27.135Z,17.19
2019-05-29T11:14:27.759Z,17.05
2019-05-29T11:15:27.220Z,17.05
2019-05-29T11:16:27.081Z,16.73
2019-05-29T11:17:27.117Z,16.40
2019-05-29T11:18:27.153Z,16.40
2019-05-29T11:19:27.246Z,16.10
2019-05-29T11:20:27.050Z,16.41
2019-05-29T11:21:27.056Z,16.73
2019-05-29T11:22:27.044Z,17.07
2019-05-29T11:23:27.294Z,17.27
2019-05-29T11:24:27.024Z,17.24
2019-05-29T11:25:27.915Z,17.16
2019-05-29T11:26:27.036Z,16.95
2019-05-29T11:27:27.001Z,16.79
2019-05-29T11:28:27.096Z,16.68
2019-05-29T11:29:26.942Z,16.55
2019-05-29T11:30:27.967Z,16.50
2019-05-29T11:31:26.970Z,16.68
2019-05-29T11:32:26.953Z,16.74
2019-05-29T11:33:26.992Z,16.97
2019-05-29T11:34:26.961Z,17.13
2019-05-29T11:35:26.931Z,17.35
2019-05-29T11:36:26.928Z,17.30
2019-05-29T11:37:26.913Z,17.13
2019-05-29T11:38:26.872Z,17.27
2019-05-29T11:39:26.857Z,17.42
2019-05-29T11:40:26.979Z,17.52
2019-05-29T11:41:26.997Z,17.79
2019-05-29T11:42:28.193Z,18.00
2019-05-29T11:43:26.802Z,17.97
2019-05-29T11:44:26.810Z,17.56
2019-05-29T11:45:26.822Z,17.35
2019-05-29T11:46:26.808Z,17.20
2019-05-29T11:47:26.793Z,17.07
2019-05-29T11:48:26.792Z,16.72
2019-05-29T11:49:26.759Z,16.54
2019-05-29T11:50:26.802Z,16.51
2019-05-29T11:51:26.721Z,16.44
2019-05-29T11:52:39.827Z,16.74
2019-05-29T11:53:27.718Z,17.20
2019-05-29T11:54:26.694Z,17.68
2019-05-29T11:55:26.676Z,18.34
2019-05-29T11:56:26.742Z,18.96
2019-05-29T11:57:26.697Z,19.62
2019-05-29T11:58:31.091Z,20.26
2019-05-29T11:59:26.658Z,20.66
2019-05-29T12:00:26.731Z,20.95
2019-05-29T12:01:26.675Z,21.14
2019-05-29T12:02:26.672Z,21.20
2019-05-29T12:03:26.609Z,21.35
2019-05-29T12:04:27.088Z,22.06
2019-05-29T12:05:26.559Z,22.62
2019-05-29T12:06:26.595Z,22.44
2019-05-29T12:07:26.609Z,22.81
2019-05-29T12:08:26.551Z,23.26
2019-05-29T12:09:32.641Z,23.06
2019-05-29T12:10:27.516Z,22.55
2019-05-29T12:11:26.600Z,21.74
2019-05-29T12:12:26.612Z,21.84
2019-05-29T12:13:26.641Z,22.34
2019-05-29T12:14:26.549Z,22.12
2019-05-29T12:15:26.462Z,21.81
2019-05-29T12:16:26.531Z,22.46
2019-05-29T12:17:26.747Z,23.49
2019-05-29T12:18:26.426Z,24.29
2019-05-29T12:19:26.530Z,24.88
2019-05-29T12:20:28.711Z,25.46
2019-05-29T12:21:27.285Z,25.91
2019-05-29T12:22:26.441Z,26.53
2019-05-29T12:23:27.269Z,26.78
2019-05-29T12:24:26.444Z,25.86
2019-05-29T12:25:26.383Z,24.41
2019-05-29T12:26:26.414Z,23.34
2019-05-29T12:27:26.428Z,22.46
2019-05-29T12:28:26.426Z,22.52
2019-05-29T12:29:26.378Z,22.67
2019-05-29T12:30:26.328Z,22.44
2019-05-29T12:31:26.331Z,22.76
2019-05-29T12:32:26.296Z,23.32
2019-05-29T12:33:27.307Z,23.59
2019-05-29T12:34:26.281Z,23.55
2019-05-29T12:35:26.275Z,23.48
2019-05-29T12:36:26.262Z,24.34
2019-05-29T12:37:26.308Z,24.07
2019-05-29T12:38:26.244Z,24.07
2019-05-29T12:39:26.316Z,24.29
2019-05-29T12:40:26.236Z,23.66
2019-05-29T12:41:26.214Z,23.23
2019-05-29T12:42:26.222Z,24.13
2019-05-29T12:43:27.937Z,24.65
2019-05-29T12:44:26.239Z,25.18
2019-05-29T12:45:26.179Z,25.56
2019-05-29T12:46:26.170Z,25.68
2019-05-29T12:47:26.213Z,25.12
2019-05-29T12:48:26.182Z,25.24
2019-05-29T12:49:26.170Z,24.55
2019-05-29T12:50:26.184Z,25.21
2019-05-29T12:51:26.108Z,25.73
2019-05-29T12:52:26.100Z,25.52
2019-05-29T12:53:30.146Z,25.58
2019-05-29T12:54:27.371Z,25.91
2019-05-29T12:55:26.122Z,26.30
2019-05-29T12:56:26.070Z,27.00
2019-05-29T12:57:26.109Z,26.96
2019-05-29T12:58:26.090Z,26.71
2019-05-29T12:59:26.031Z,24.75
2019-05-29T13:00:26.193Z,24.03
2019-05-29T13:01:26.046Z,23.44
2019-05-29T13:02:26.032Z,23.74
2019-05-29T13:03:26.017Z,22.93
2019-05-29T13:04:25.972Z,22.19
2019-05-29T13:05:25.971Z,22.18
2019-05-29T13:06:26.801Z,22.28
2019-05-29T13:07:25.979Z,22.04
2019-05-29T13:08:25.964Z,22.55
2019-05-29T13:09:25.976Z,23.94
2019-05-29T13:10:30.495Z,24.36
2019-05-29T13:11:26.936Z,25.62
2019-05-29T13:12:25.961Z,26.76
2019-05-29T13:13:25.946Z,27.53
2019-05-29T13:14:26.008Z,28.25
2019-05-29T13:15:26.076Z,28.30
2019-05-29T13:16:25.876Z,27.15
2019-05-29T13:17:25.981Z,25.88
2019-05-29T13:18:25.862Z,23.96
2019-05-29T13:19:25.871Z,23.10
2019-05-29T13:20:25.821Z,22.81
2019-05-29T13:21:25.914Z,22.63
2019-05-29T13:22:25.821Z,22.25
2019-05-29T13:23:25.797Z,21.54
2019-05-29T13:24:25.851Z,20.83
2019-05-29T13:25:25.797Z,20.86